createdAt,value
2019-01-21T00:03:46.166Z,9.8
2019-01-21T00:08:48.435Z,9.1
2019-01-21T00:13:50.699Z,8.3
2019-01-21T00:18:53.052Z,8.4
2019-01-21T00:23:55.288Z,7.7
2019-01-21T00:28:57.581Z,7.9
2019-01-21T00:33:59.945Z,8.9
2019-01-21T00:39:02.110Z,9.4
2019-01-21T00:44:04.438Z,3.8
2019-01-21T00:49:06.781Z,10.2
2019-01-21T00:54:09.056Z,7.8
2019-01-21T00:59:11.373Z,9.7
2019-01-21T01:04:13.741Z,9
2019-01-21T01:09:15.954Z,7
2019-01-21T01:14:18.177Z,9
2019-01-21T01:19:20.428Z,5.8
2019-01-21T01:24:22.903Z,4.3
2019-01-21T01:29:25.205Z,6.5
2019-01-21T01:34:27.423Z,8
2019-01-21T01:39:29.632Z,5.7
2019-01-21T01:44:32.069Z,6.7
2019-01-21T01:49:34.273Z,6.2
2019-01-21T01:54:36.558Z,4.6
2019-01-21T01:59:39.302Z,8.6
2019-01-21T02:04:41.199Z,5
2019-01-21T02:09:43.881Z,8.6
2019-01-21T02:14:45.711Z,7.4
2019-01-21T02:19:48.102Z,7.9
2019-01-21T02:24:50.244Z,4.9
2019-01-21T02:29:52.585Z,7.6
2019-01-21T02:34:55.003Z,8.8
2019-01-21T02:39:57.281Z,7.6
2019-01-21T02:44:59.575Z,8.1
2019-01-21T02:50:01.708Z,7.7
2019-01-21T02:55:04.051Z,4.2
2019-01-21T03:00:06.438Z,9.6
2019-01-21T03:05:08.663Z,6.9
2019-01-21T03:10:10.940Z,7.6
2019-01-21T03:15:13.379Z,10.1
2019-01-21T03:20:15.501Z,6.2
2019-01-21T03:25:17.877Z,7.6
2019-01-21T03:30:20.125Z,8
2019-01-21T03:35:22.492Z,5.9
2019-01-21T03:40:24.824Z,4.7
2019-01-21T03:45:27.043Z,7.2
2019-01-21T03:50:29.324Z,10.2
2019-01-21T03:55:31.654Z,10
2019-01-21T04:00:33.991Z,7.6
2019-01-21T04:05:36.221Z,4.2
2019-01-21T04:10:38.498Z,5.7
2019-01-21T04:15:40.795Z,8.6
2019-01-21T04:20:43.120Z,8.2
2019-01-21T04:25:45.345Z,5.3
2019-01-21T04:30:47.733Z,6.9
2019-01-21T04:35:50.064Z,10.2
2019-01-21T04:40:52.316Z,7.5
2019-01-21T04:50:56.867Z,7.2
2019-01-21T04:55:59.201Z,9.2
2019-01-21T05:01:01.497Z,9.1
2019-01-21T05:06:03.759Z,9.3
2019-01-21T05:11:06.226Z,5.7
2019-01-21T05:16:08.298Z,9.4
2019-01-21T05:21:10.697Z,9.9
2019-01-21T05:26:12.855Z,6.4
2019-01-21T05:31:15.250Z,7.6
2019-01-21T05:36:17.568Z,6
2019-01-21T05:41:19.770Z,9.4
2019-01-21T05:46:22.084Z,8.6
2019-01-21T05:51:24.500Z,7.1
2019-01-21T05:56:26.635Z,9.4
2019-01-21T06:01:28.977Z,7.3
2019-01-21T06:06:31.367Z,9
2019-01-21T06:11:33.711Z,8.3
2019-01-21T06:16:35.936Z,8.5
2019-01-21T06:21:38.165Z,9.2
2019-01-21T06:26:40.469Z,5.3
2019-01-21T06:31:42.683Z,10.5
2019-01-21T06:36:45.044Z,8.3
2019-01-21T06:41:47.287Z,10.1
2019-01-21T06:46:49.600Z,7.1
2019-01-21T06:51:51.837Z,7.9
2019-01-21T06:56:54.228Z,6.9
2019-01-21T07:01:56.570Z,6.6
2019-01-21T07:06:58.947Z,9.8
2019-01-21T07:12:01.141Z,9
2019-01-21T07:17:03.405Z,10.1
2019-01-21T07:22:05.719Z,12.9
2019-01-21T07:27:07.918Z,10
2019-01-21T07:32:10.189Z,5.5
2019-01-21T07:37:12.501Z,9.5
2019-01-21T07:42:14.903Z,12.5
2019-01-21T07:47:17.125Z,12.5
2019-01-21T07:52:19.405Z,7.6
2019-01-21T07:57:21.831Z,10.1
2019-01-21T08:02:24.074Z,11.5
2019-01-21T08:07:26.318Z,7.4
2019-01-21T08:12:28.524Z,8.9
2019-01-21T08:17:30.950Z,5.4
2019-01-21T08:22:33.197Z,8.4
2019-01-21T08:27:35.471Z,8.2
2019-01-21T08:32:37.782Z,8.5
2019-01-21T08:37:40.130Z,11
2019-01-21T08:42:42.404Z,6.8
2019-01-21T08:47:44.673Z,11.2
2019-01-21T08:52:47.035Z,10.8
2019-01-21T08:57:49.279Z,11.2
2019-01-21T09:02:57.026Z,9.4
2019-01-21T09:07:53.948Z,10.9
2019-01-21T09:12:56.153Z,10.3
2019-01-21T09:17:58.518Z,12.5
2019-01-21T09:23:00.664Z,11.5
2019-01-21T09:28:03.037Z,13.9
2019-01-21T09:33:05.259Z,14.6
2019-01-21T09:38:07.630Z,11.8
2019-01-21T09:43:09.889Z,16.9
2019-01-21T09:48:12.160Z,12.6
2019-01-21T09:53:14.608Z,14
2019-01-21T09:58:16.892Z,12.9
2019-01-21T10:03:19.102Z,17.1
2019-01-21T10:08:21.422Z,13.9
2019-01-21T10:13:23.763Z,10.2
2019-01-21T10:18:27.398Z,11.7
2019-01-21T10:23:28.316Z,12.3
2019-01-21T10:28:30.697Z,12.3
2019-01-21T10:33:34.110Z,12.2
2019-01-21T10:38:35.201Z,17.200001
2019-01-21T10:43:37.459Z,15.1
2019-01-21T10:48:39.781Z,13.8
2019-01-21T10:53:41.995Z,18.4
2019-01-21T10:58:44.313Z,11.8
2019-01-21T11:03:46.727Z,18.5
2019-01-21T11:08:48.986Z,13.7
2019-01-21T11:13:51.131Z,15.1
2019-01-21T11:18:53.493Z,13.7
2019-01-21T11:23:55.952Z,12.5
2019-01-21T11:28:58.039Z,13.1
2019-01-21T11:34:01.791Z,12
2019-01-21T11:39:02.571Z,10.8
2019-01-21T11:44:04.972Z,10.9
2019-01-21T11:49:07.280Z,11.3
2019-01-21T11:54:09.630Z,15.9
2019-01-21T11:59:11.873Z,12.1
2019-01-21T12:04:15.252Z,11.6
2019-01-21T12:09:16.392Z,11.5
2019-01-21T12:19:21.037Z,10.7
2019-01-21T12:24:23.242Z,9.9
2019-01-21T12:29:25.630Z,13.3
2019-01-21T12:34:27.930Z,12.6
2019-01-21T12:39:30.195Z,8.9
2019-01-21T12:44:32.484Z,10.1
2019-01-21T12:49:34.795Z,11.1
2019-01-21T12:54:37.165Z,11.2
2019-01-21T12:59:39.312Z,11.2
2019-01-21T13:04:41.589Z,14.1
2019-01-21T13:09:43.971Z,13.8
2019-01-21T13:14:46.277Z,10.2
2019-01-21T13:19:48.477Z,9.1
2019-01-21T13:24:51.055Z,9.1
2019-01-21T13:29:53.192Z,13.7
2019-01-21T13:34:55.509Z,9.3
2019-01-21T13:39:57.623Z,12
2019-01-21T13:45:00.005Z,9.7
2019-01-21T13:50:02.350Z,8.5
2019-01-21T13:55:04.502Z,10.8
2019-01-21T14:00:06.818Z,7.2
2019-01-21T14:05:09.194Z,9.7
2019-01-21T14:10:11.369Z,11.7
2019-01-21T14:15:13.751Z,9
2019-01-21T14:20:16.834Z,10.3
2019-01-21T14:25:18.306Z,10
2019-01-21T14:30:20.599Z,8.8
2019-01-21T14:35:22.859Z,11.2
2019-01-21T14:40:25.217Z,8.9
2019-01-21T14:45:27.494Z,9.7
2019-01-21T14:50:29.801Z,6.8
2019-01-21T14:55:32.095Z,9.8
2019-01-21T15:00:34.512Z,10.5
2019-01-21T15:05:36.641Z,11.5
2019-01-21T15:10:39.042Z,10.2
2019-01-21T15:15:41.320Z,9.4
2019-01-21T15:20:43.569Z,12.1
2019-01-21T15:25:45.902Z,12.5
2019-01-21T15:30:48.294Z,10
2019-01-21T15:35:50.491Z,11.1
2019-01-21T15:40:52.802Z,9.7
2019-01-21T15:45:55.177Z,5.8
2019-01-21T15:50:57.308Z,7
2019-01-21T15:55:59.661Z,8.9
2019-01-21T16:01:01.929Z,10.1
2019-01-21T16:06:04.123Z,12
2019-01-21T16:11:06.481Z,10.3
2019-01-21T16:16:08.792Z,13.9
2019-01-21T16:21:12.821Z,12.5
2019-01-21T16:26:13.484Z,10.2
2019-01-21T16:31:15.680Z,9.8
2019-01-21T16:36:17.919Z,9.8
2019-01-21T16:41:20.204Z,14.5
2019-01-21T16:46:23.616Z,12.2
2019-01-21T16:51:24.776Z,12.1
2019-01-21T16:56:27.084Z,11.3
2019-01-21T17:01:29.580Z,11.9
2019-01-21T17:06:31.739Z,11.3
2019-01-21T17:11:33.974Z,11
2019-01-21T17:16:36.371Z,12.2
2019-01-21T17:21:38.666Z,13.6
2019-01-21T17:26:40.966Z,15.5
2019-01-21T17:31:43.163Z,14.3
2019-01-21T17:36:45.558Z,14.2
2019-01-21T17:41:47.805Z,13.9
2019-01-21T17:46:50.106Z,14.5
2019-01-21T17:51:52.461Z,11.2
2019-01-21T17:56:54.599Z,13
2019-01-21T18:01:56.908Z,11.6
2019-01-21T18:06:59.152Z,15
2019-01-21T18:12:01.647Z,18
2019-01-21T18:17:03.851Z,15.1
2019-01-21T18:22:06.148Z,16.4
2019-01-21T18:27:08.512Z,15
2019-01-21T18:32:10.772Z,16.799999
2019-01-21T18:37:13.029Z,17.4
2019-01-21T18:42:15.254Z,17.1
2019-01-21T18:47:17.531Z,21.200001
2019-01-21T18:52:20.647Z,15.8
2019-01-21T18:57:22.122Z,25.200001
2019-01-21T19:02:24.468Z,22.6
2019-01-21T19:07:26.707Z,22.9
2019-01-21T19:12:29.047Z,18.700001
2019-01-21T19:17:31.401Z,13.5
2019-01-21T19:22:33.692Z,16.4
2019-01-21T19:27:36.025Z,15.7
2019-01-21T19:32:38.290Z,16.6
2019-01-21T19:37:40.456Z,15.4
2019-01-21T19:42:42.875Z,15.2
2019-01-21T19:47:45.280Z,16.5
2019-01-21T19:52:47.427Z,19.5
2019-01-21T19:57:49.861Z,15.6
2019-01-21T20:02:52.063Z,19.200001
2019-01-21T20:07:54.336Z,18.9
2019-01-21T20:12:56.654Z,17.200001
2019-01-21T20:17:58.982Z,16.4
2019-01-21T20:23:01.158Z,16
2019-01-21T20:28:03.516Z,18.1
2019-01-21T20:33:05.813Z,13.3
2019-01-21T20:38:08.031Z,13.4
2019-01-21T20:43:10.491Z,14.9
2019-01-21T20:48:12.728Z,18.299999
2019-01-21T20:53:14.967Z,21.200001
2019-01-21T20:58:17.303Z,16.9
2019-01-21T21:03:19.576Z,16.799999
2019-01-21T21:08:21.890Z,12.4
2019-01-21T21:13:24.045Z,13.7
2019-01-21T21:18:26.465Z,14.6
2019-01-21T21:23:28.595Z,17.200001
2019-01-21T21:28:31.243Z,15.3
2019-01-21T21:33:33.246Z,13.3
2019-01-21T21:38:35.658Z,17.5
2019-01-21T21:43:39.386Z,14.8
2019-01-21T21:48:40.134Z,15.3
2019-01-21T21:53:42.553Z,15.7
2019-01-21T21:58:44.846Z,13.8
2019-01-21T22:03:47.012Z,9.9
2019-01-21T22:08:49.282Z,16.700001
2019-01-21T22:13:51.643Z,18.9
2019-01-21T22:18:53.912Z,15.1
2019-01-21T22:23:56.335Z,17.5
2019-01-21T22:28:58.553Z,14.9
2019-01-21T22:34:00.826Z,15.5
2019-01-21T22:39:03.147Z,15.9
2019-01-21T22:44:05.500Z,10.5
2019-01-21T22:49:07.764Z,12.4
2019-01-21T22:54:11.171Z,12.5
2019-01-21T22:59:12.372Z,16.700001
2019-01-21T23:04:14.554Z,13.8
2019-01-21T23:09:16.820Z,16.700001
2019-01-21T23:14:19.181Z,10.2
2019-01-21T23:19:21.408Z,14.7
2019-01-21T23:24:23.740Z,16.799999
2019-01-21T23:29:26.134Z,14.1
2019-01-21T23:34:28.382Z,14.4
2019-01-21T23:39:30.632Z,17.1
2019-01-21T23:44:32.854Z,16.799999
2019-01-21T23:49:35.299Z,11.7
2019-01-21T23:54:37.476Z,12.5
2019-01-21T23:59:39.763Z,13.5
